sensor_id;sensor_type;location;lat;lon;timestamp;P1;durP1;ratioP1;P2;durP2;ratioP2
10596;SDS011;5346;48.766;8.674;2023-08-01T00:00:13;4.80;;;3.75;;
10596;SDS011;5346;48.766;8.674;2023-08-01T00:02:48;7.03;;;3.92;;
10596;SDS011;5346;48.766;8.674;2023-08-01T00:05:16;9.48;;;4.30;;
10596;SDS011;5346;48.766;8.674;2023-08-01T00:07:51;9.18;;;4.05;;
10596;SDS011;5346;48.766;8.674;2023-08-01T00:10:19;8.70;;;4.07;;
10596;SDS011;5346;48.766;8.674;2023-08-01T00:12:54;6.03;;;3.75;;
10596;SDS011;5346;48.766;8.674;2023-08-01T00:15:29;7.88;;;3.92;;
10596;SDS011;5346;48.766;8.674;2023-08-01T00:18:04;5.68;;;3.60;;
10596;SDS011;5346;48.766;8.674;2023-08-01T00:20:39;7.00;;;3.78;;
10596;SDS011;5346;48.766;8.674;2023-08-01T00:23:08;9.15;;;4.00;;
10596;SDS011;5346;48.766;8.674;2023-08-01T00:25:43;6.90;;;4.30;;
10596;SDS011;5346;48.766;8.674;2023-08-01T00:28:10;7.57;;;3.67;;
10596;SDS011;5346;48.766;8.674;2023-08-01T00:30:46;6.03;;;4.03;;
10596;SDS011;5346;48.766;8.674;2023-08-01T00:33:13;8.07;;;4.45;;
10596;SDS011;5346;48.766;8.674;2023-08-01T00:35:55;8.85;;;4.30;;
10596;SDS011;5346;48.766;8.674;2023-08-01T00:38:35;6.28;;;3.88;;
10596;SDS011;5346;48.766;8.674;2023-08-01T00:41:10;8.68;;;4.60;;
10596;SDS011;5346;48.766;8.674;2023-08-01T00:43:44;9.05;;;3.38;;
10596;SDS011;5346;48.766;8.674;2023-08-01T00:46:18;7.97;;;4.10;;
10596;SDS011;5346;48.766;8.674;2023-08-01T00:48:53;6.15;;;3.85;;
10596;SDS011;5346;48.766;8.674;2023-08-01T00:51:31;4.97;;;3.50;;
10596;SDS011;5346;48.766;8.674;2023-08-01T00:54:06;9.23;;;3.97;;
10596;SDS011;5346;48.766;8.674;2023-08-01T00:56:33;6.50;;;4.30;;
10596;SDS011;5346;48.766;8.674;2023-08-01T00:59:04;6.15;;;3.70;;
10596;SDS011;5346;48.766;8.674;2023-08-01T01:01:39;6.13;;;3.58;;
10596;SDS011;5346;48.766;8.674;2023-08-01T01:04:15;5.32;;;4.22;;
10596;SDS011;5346;48.766;8.674;2023-08-01T01:07:10;12.35;;;3.53;;
10596;SDS011;5346;48.766;8.674;2023-08-01T01:09:37;8.70;;;3.83;;
10596;SDS011;5346;48.766;8.674;2023-08-01T01:12:12;6.78;;;3.40;;
10596;SDS011;5346;48.766;8.674;2023-08-01T01:14:46;8.95;;;4.22;;
10596;SDS011;5346;48.766;8.674;2023-08-01T01:17:14;6.45;;;4.07;;
10596;SDS011;5346;48.766;8.674;2023-08-01T01:19:49;5.78;;;3.65;;
10596;SDS011;5346;48.766;8.674;2023-08-01T01:22:25;5.55;;;4.03;;
10596;SDS011;5346;48.766;8.674;2023-08-01T01:25:00;11.23;;;4.50;;
10596;SDS011;5346;48.766;8.674;2023-08-01T01:27:36;10.18;;;4.50;;
10596;SDS011;5346;48.766;8.674;2023-08-01T01:30:11;9.07;;;4.97;;
10596;SDS011;5346;48.766;8.674;2023-08-01T01:32:45;5.68;;;4.13;;
10596;SDS011;5346;48.766;8.674;2023-08-01T01:35:20;11.20;;;4.65;;
10596;SDS011;5346;48.766;8.674;2023-08-01T01:38:02;6.40;;;4.25;;
10596;SDS011;5346;48.766;8.674;2023-08-01T01:40:31;6.45;;;4.38;;
10596;SDS011;5346;48.766;8.674;2023-08-01T01:43:06;6.30;;;4.38;;
10596;SDS011;5346;48.766;8.674;2023-08-01T01:45:34;9.63;;;4.75;;
10596;SDS011;5346;48.766;8.674;2023-08-01T01:48:09;10.27;;;5.45;;
10596;SDS011;5346;48.766;8.674;2023-08-01T01:50:43;8.40;;;4.22;;
10596;SDS011;5346;48.766;8.674;2023-08-01T01:53:17;9.82;;;5.13;;
10596;SDS011;5346;48.766;8.674;2023-08-01T01:55:44;10.05;;;5.03;;
10596;SDS011;5346;48.766;8.674;2023-08-01T01:58:20;9.48;;;5.68;;
10596;SDS011;5346;48.766;8.674;2023-08-01T02:00:48;7.35;;;4.68;;
10596;SDS011;5346;48.766;8.674;2023-08-01T02:03:16;8.75;;;4.85;;
10596;SDS011;5346;48.766;8.674;2023-08-01T02:05:51;7.82;;;4.40;;
10596;SDS011;5346;48.766;8.674;2023-08-01T02:08:18;8.70;;;4.97;;
10596;SDS011;5346;48.766;8.674;2023-08-01T02:10:53;8.93;;;5.00;;
10596;SDS011;5346;48.766;8.674;2023-08-01T02:13:25;9.80;;;4.95;;
10596;SDS011;5346;48.766;8.674;2023-08-01T02:16:01;12.93;;;5.00;;
10596;SDS011;5346;48.766;8.674;2023-08-01T02:18:29;9.52;;;5.57;;
10596;SDS011;5346;48.766;8.674;2023-08-01T02:21:05;9.60;;;5.10;;
10596;SDS011;5346;48.766;8.674;2023-08-01T02:23:39;12.48;;;6.05;;
10596;SDS011;5346;48.766;8.674;2023-08-01T02:26:13;10.15;;;4.82;;
10596;SDS011;5346;48.766;8.674;2023-08-01T02:28:41;9.10;;;5.15;;
10596;SDS011;5346;48.766;8.674;2023-08-01T02:31:15;7.75;;;5.43;;
10596;SDS011;5346;48.766;8.674;2023-08-01T02:33:56;11.90;;;5.60;;
10596;SDS011;5346;48.766;8.674;2023-08-01T02:36:31;11.90;;;5.72;;
10596;SDS011;5346;48.766;8.674;2023-08-01T02:38:58;14.05;;;5.63;;
10596;SDS011;5346;48.766;8.674;2023-08-01T02:41:33;11.27;;;5.78;;
10596;SDS011;5346;48.766;8.674;2023-08-01T02:44:00;8.55;;;5.22;;
10596;SDS011;5346;48.766;8.674;2023-08-01T02:46:35;11.52;;;5.38;;
10596;SDS011;5346;48.766;8.674;2023-08-01T02:49:03;14.25;;;5.55;;
10596;SDS011;5346;48.766;8.674;2023-08-01T02:51:38;8.30;;;5.30;;
10596;SDS011;5346;48.766;8.674;2023-08-01T02:54:06;7.32;;;5.00;;
10596;SDS011;5346;48.766;8.674;2023-08-01T02:56:40;12.98;;;5.43;;
10596;SDS011;5346;48.766;8.674;2023-08-01T02:59:08;8.90;;;4.82;;
10596;SDS011;5346;48.766;8.674;2023-08-01T03:01:37;8.95;;;5.30;;
10596;SDS011;5346;48.766;8.674;2023-08-01T03:04:11;10.18;;;5.03;;
10596;SDS011;5346;48.766;8.674;2023-08-01T03:06:38;7.70;;;5.47;;
10596;SDS011;5346;48.766;8.674;2023-08-01T03:09:07;8.43;;;4.55;;
10596;SDS011;5346;48.766;8.674;2023-08-01T03:11:43;8.45;;;5.15;;
10596;SDS011;5346;48.766;8.674;2023-08-01T03:14:18;7.63;;;4.57;;
10596;SDS011;5346;48.766;8.674;2023-08-01T03:16:52;5.30;;;4.03;;
10596;SDS011;5346;48.766;8.674;2023-08-01T03:19:26;8.07;;;4.40;;
10596;SDS011;5346;48.766;8.674;2023-08-01T03:22:00;6.97;;;4.13;;
10596;SDS011;5346;48.766;8.674;2023-08-01T03:24:35;10.48;;;4.57;;
10596;SDS011;5346;48.766;8.674;2023-08-01T03:27:10;7.28;;;4.45;;
10596;SDS011;5346;48.766;8.674;2023-08-01T03:29:37;10.57;;;4.13;;
10596;SDS011;5346;48.766;8.674;2023-08-01T03:32:12;15.73;;;4.60;;
10596;SDS011;5346;48.766;8.674;2023-08-01T03:34:46;6.78;;;4.38;;
10596;SDS011;5346;48.766;8.674;2023-08-01T03:37:27;7.63;;;4.18;;
10596;SDS011;5346;48.766;8.674;2023-08-01T03:40:01;6.75;;;4.07;;
10596;SDS011;5346;48.766;8.674;2023-08-01T03:42:35;6.53;;;3.97;;
10596;SDS011;5346;48.766;8.674;2023-08-01T03:45:10;9.65;;;4.13;;
10596;SDS011;5346;48.766;8.674;2023-08-01T03:47:44;8.23;;;3.97;;
10596;SDS011;5346;48.766;8.674;2023-08-01T03:50:11;6.13;;;3.92;;
10596;SDS011;5346;48.766;8.674;2023-08-01T03:52:47;10.45;;;4.55;;
10596;SDS011;5346;48.766;8.674;2023-08-01T03:55:15;6.47;;;3.55;;
10596;SDS011;5346;48.766;8.674;2023-08-01T03:57:49;7.32;;;3.75;;
10596;SDS011;5346;48.766;8.674;2023-08-01T04:00:24;8.52;;;3.85;;
10596;SDS011;5346;48.766;8.674;2023-08-01T04:02:59;7.25;;;3.70;;
10596;SDS011;5346;48.766;8.674;2023-08-01T04:05:28;6.88;;;3.40;;
10596;SDS011;5346;48.766;8.674;2023-08-01T04:08:03;7.63;;;4.20;;
10596;SDS011;5346;48.766;8.674;2023-08-01T04:10:30;8.80;;;3.95;;
10596;SDS011;5346;48.766;8.674;2023-08-01T04:13:05;8.23;;;4.32;;
10596;SDS011;5346;48.766;8.674;2023-08-01T04:15:39;7.13;;;4.05;;
10596;SDS011;5346;48.766;8.674;2023-08-01T04:18:21;7.43;;;3.85;;
10596;SDS011;5346;48.766;8.674;2023-08-01T04:20:48;8.93;;;3.58;;
10596;SDS011;5346;48.766;8.674;2023-08-01T04:23:23;13.50;;;3.95;;
10596;SDS011;5346;48.766;8.674;2023-08-01T04:25:57;9.50;;;3.88;;
10596;SDS011;5346;48.766;8.674;2023-08-01T04:28:33;6.25;;;3.90;;
10596;SDS011;5346;48.766;8.674;2023-08-01T04:31:08;5.80;;;4.03;;
10596;SDS011;5346;48.766;8.674;2023-08-01T04:33:49;4.82;;;3.55;;
10596;SDS011;5346;48.766;8.674;2023-08-01T04:36:24;6.35;;;3.53;;
10596;SDS011;5346;48.766;8.674;2023-08-01T04:39:05;5.85;;;3.35;;
10596;SDS011;5346;48.766;8.674;2023-08-01T04:41:33;5.35;;;3.55;;
10596;SDS011;5346;48.766;8.674;2023-08-01T04:44:07;4.90;;;3.40;;
10596;SDS011;5346;48.766;8.674;2023-08-01T04:46:41;7.95;;;3.65;;
10596;SDS011;5346;48.766;8.674;2023-08-01T04:49:15;7.28;;;3.55;;
10596;SDS011;5346;48.766;8.674;2023-08-01T04:51:42;5.40;;;3.38;;
10596;SDS011;5346;48.766;8.674;2023-08-01T04:54:17;6.80;;;3.67;;
10596;SDS011;5346;48.766;8.674;2023-08-01T04:56:44;4.85;;;3.30;;
10596;SDS011;5346;48.766;8.674;2023-08-01T04:59:19;7.22;;;3.22;;
10596;SDS011;5346;48.766;8.674;2023-08-01T05:01:47;6.97;;;4.05;;
10596;SDS011;5346;48.766;8.674;2023-08-01T05:04:21;7.45;;;3.55;;
10596;SDS011;5346;48.766;8.674;2023-08-01T05:06:49;6.78;;;4.07;;
10596;SDS011;5346;48.766;8.674;2023-08-01T05:09:23;4.88;;;3.88;;
10596;SDS011;5346;48.766;8.674;2023-08-01T05:11:50;5.35;;;4.07;;
10596;SDS011;5346;48.766;8.674;2023-08-01T05:14:25;8.43;;;3.97;;
10596;SDS011;5346;48.766;8.674;2023-08-01T05:16:53;9.40;;;4.40;;
10596;SDS011;5346;48.766;8.674;2023-08-01T05:19:27;5.78;;;4.05;;
10596;SDS011;5346;48.766;8.674;2023-08-01T05:21:55;10.15;;;5.07;;
10596;SDS011;5346;48.766;8.674;2023-08-01T05:24:30;8.45;;;4.85;;
10596;SDS011;5346;48.766;8.674;2023-08-01T05:26:57;8.68;;;4.25;;
10596;SDS011;5346;48.766;8.674;2023-08-01T05:29:32;7.35;;;4.28;;
10596;SDS011;5346;48.766;8.674;2023-08-01T05:32:06;7.60;;;4.60;;
10596;SDS011;5346;48.766;8.674;2023-08-01T05:34:46;7.78;;;4.35;;
10596;SDS011;5346;48.766;8.674;2023-08-01T05:37:14;6.55;;;4.20;;
10596;SDS011;5346;48.766;8.674;2023-08-01T05:39:49;5.63;;;3.97;;
10596;SDS011;5346;48.766;8.674;2023-08-01T05:42:17;8.93;;;4.25;;
10596;SDS011;5346;48.766;8.674;2023-08-01T05:44:51;7.00;;;3.90;;
10596;SDS011;5346;48.766;8.674;2023-08-01T05:47:19;5.55;;;3.70;;
10596;SDS011;5346;48.766;8.674;2023-08-01T05:49:53;8.48;;;4.57;;
10596;SDS011;5346;48.766;8.674;2023-08-01T05:52:20;8.00;;;3.80;;
10596;SDS011;5346;48.766;8.674;2023-08-01T05:54:48;5.60;;;3.72;;
10596;SDS011;5346;48.766;8.674;2023-08-01T05:57:23;7.18;;;3.72;;
10596;SDS011;5346;48.766;8.674;2023-08-01T05:59:51;6.25;;;3.50;;
10596;SDS011;5346;48.766;8.674;2023-08-01T06:02:25;7.90;;;3.90;;
10596;SDS011;5346;48.766;8.674;2023-08-01T06:04:52;9.38;;;3.45;;
10596;SDS011;5346;48.766;8.674;2023-08-01T06:07:27;6.57;;;4.22;;
10596;SDS011;5346;48.766;8.674;2023-08-01T06:09:55;6.90;;;3.58;;
10596;SDS011;5346;48.766;8.674;2023-08-01T06:12:22;7.55;;;4.50;;
10596;SDS011;5346;48.766;8.674;2023-08-01T06:14:57;5.47;;;4.10;;
10596;SDS011;5346;48.766;8.674;2023-08-01T06:17:25;6.65;;;4.30;;
10596;SDS011;5346;48.766;8.674;2023-08-01T06:19:59;6.90;;;4.15;;
10596;SDS011;5346;48.766;8.674;2023-08-01T06:22:30;5.40;;;4.43;;
10596;SDS011;5346;48.766;8.674;2023-08-01T06:25:04;6.43;;;4.78;;
10596;SDS011;5346;48.766;8.674;2023-08-01T06:27:32;9.13;;;4.65;;
10596;SDS011;5346;48.766;8.674;2023-08-01T06:30:07;9.95;;;5.25;;
10596;SDS011;5346;48.766;8.674;2023-08-01T06:32:42;7.63;;;4.75;;
10596;SDS011;5346;48.766;8.674;2023-08-01T06:35:31;6.93;;;4.30;;
10596;SDS011;5346;48.766;8.674;2023-08-01T06:38:13;9.88;;;4.57;;
10596;SDS011;5346;48.766;8.674;2023-08-01T06:40:47;6.97;;;4.65;;
10596;SDS011;5346;48.766;8.674;2023-08-01T06:43:21;8.23;;;4.88;;
10596;SDS011;5346;48.766;8.674;2023-08-01T06:45:57;7.25;;;4.93;;
10596;SDS011;5346;48.766;8.674;2023-08-01T06:48:24;9.32;;;4.47;;
10596;SDS011;5346;48.766;8.674;2023-08-01T06:50:52;7.25;;;4.93;;
10596;SDS011;5346;48.766;8.674;2023-08-01T06:53:27;6.45;;;4.57;;
10596;SDS011;5346;48.766;8.674;2023-08-01T06:55:54;7.20;;;4.97;;
10596;SDS011;5346;48.766;8.674;2023-08-01T06:58:29;8.90;;;4.95;;
10596;SDS011;5346;48.766;8.674;2023-08-01T07:00:57;8.40;;;4.82;;
10596;SDS011;5346;48.766;8.674;2023-08-01T07:03:31;9.88;;;4.28;;
10596;SDS011;5346;48.766;8.674;2023-08-01T07:05:59;4.78;;;3.95;;
10596;SDS011;5346;48.766;8.674;2023-08-01T07:08:34;8.50;;;4.05;;
10596;SDS011;5346;48.766;8.674;2023-08-01T07:11:08;5.38;;;3.60;;
10596;SDS011;5346;48.766;8.674;2023-08-01T07:13:42;5.35;;;3.92;;
10596;SDS011;5346;48.766;8.674;2023-08-01T07:16:16;6.53;;;4.10;;
10596;SDS011;5346;48.766;8.674;2023-08-01T07:18:50;10.25;;;3.60;;
10596;SDS011;5346;48.766;8.674;2023-08-01T07:21:25;5.88;;;3.53;;
10596;SDS011;5346;48.766;8.674;2023-08-01T07:23:59;4.93;;;3.72;;
10596;SDS011;5346;48.766;8.674;2023-08-01T07:26:28;6.25;;;3.20;;
10596;SDS011;5346;48.766;8.674;2023-08-01T07:29:03;6.55;;;3.03;;
10596;SDS011;5346;48.766;8.674;2023-08-01T07:31:31;5.07;;;3.00;;
10596;SDS011;5346;48.766;8.674;2023-08-01T07:34:11;4.00;;;3.05;;
10596;SDS011;5346;48.766;8.674;2023-08-01T07:36:53;4.85;;;2.97;;
10596;SDS011;5346;48.766;8.674;2023-08-01T07:39:27;3.35;;;2.55;;
10596;SDS011;5346;48.766;8.674;2023-08-01T07:42:01;3.78;;;2.88;;
10596;SDS011;5346;48.766;8.674;2023-08-01T07:44:36;3.97;;;2.53;;
10596;SDS011;5346;48.766;8.674;2023-08-01T07:47:10;4.70;;;2.47;;
10596;SDS011;5346;48.766;8.674;2023-08-01T07:49:37;4.30;;;2.65;;
10596;SDS011;5346;48.766;8.674;2023-08-01T07:52:13;3.53;;;2.20;;
10596;SDS011;5346;48.766;8.674;2023-08-01T07:54:41;3.33;;;1.88;;
10596;SDS011;5346;48.766;8.674;2023-08-01T07:57:15;4.97;;;2.10;;
10596;SDS011;5346;48.766;8.674;2023-08-01T07:59:50;1.83;;;1.40;;
10596;SDS011;5346;48.766;8.674;2023-08-01T08:02:18;2.33;;;1.63;;
10596;SDS011;5346;48.766;8.674;2023-08-01T08:04:52;1.70;;;1.60;;
10596;SDS011;5346;48.766;8.674;2023-08-01T08:07:26;2.97;;;1.60;;
10596;SDS011;5346;48.766;8.674;2023-08-01T08:10:00;1.33;;;1.17;;
10596;SDS011;5346;48.766;8.674;2023-08-01T08:12:28;1.98;;;1.20;;
10596;SDS011;5346;48.766;8.674;2023-08-01T08:15:03;1.70;;;1.10;;
10596;SDS011;5346;48.766;8.674;2023-08-01T08:17:31;1.42;;;1.17;;
10596;SDS011;5346;48.766;8.674;2023-08-01T08:20:06;1.20;;;1.00;;
10596;SDS011;5346;48.766;8.674;2023-08-01T08:22:34;0.80;;;0.80;;
10596;SDS011;5346;48.766;8.674;2023-08-01T08:25:09;0.90;;;0.90;;
10596;SDS011;5346;48.766;8.674;2023-08-01T08:27:37;2.35;;;0.80;;
10596;SDS011;5346;48.766;8.674;2023-08-01T08:30:11;0.88;;;0.60;;
10596;SDS011;5346;48.766;8.674;2023-08-01T08:32:38;0.60;;;0.60;;
10596;SDS011;5346;48.766;8.674;2023-08-01T08:35:19;1.92;;;0.80;;
10596;SDS011;5346;48.766;8.674;2023-08-01T08:37:47;1.08;;;0.60;;
10596;SDS011;5346;48.766;8.674;2023-08-01T08:40:22;1.23;;;0.60;;
10596;SDS011;5346;48.766;8.674;2023-08-01T08:42:56;0.38;;;0.38;;
10596;SDS011;5346;48.766;8.674;2023-08-01T08:45:35;0.47;;;0.47;;
10596;SDS011;5346;48.766;8.674;2023-08-01T08:48:13;1.25;;;0.52;;
10596;SDS011;5346;48.766;8.674;2023-08-01T08:50:44;0.40;;;0.40;;
10596;SDS011;5346;48.766;8.674;2023-08-01T08:53:20;1.10;;;0.50;;
10596;SDS011;5346;48.766;8.674;2023-08-01T08:55:48;0.50;;;0.40;;
10596;SDS011;5346;48.766;8.674;2023-08-01T08:58:23;0.30;;;0.22;;
10596;SDS011;5346;48.766;8.674;2023-08-01T09:00:58;0.22;;;0.22;;
10596;SDS011;5346;48.766;8.674;2023-08-01T09:03:34;0.40;;;0.30;;
10596;SDS011;5346;48.766;8.674;2023-08-01T09:06:10;0.20;;;0.20;;
10596;SDS011;5346;48.766;8.674;2023-08-01T09:08:50;0.10;;;0.10;;
10596;SDS011;5346;48.766;8.674;2023-08-01T09:11:38;0.20;;;0.20;;
10596;SDS011;5346;48.766;8.674;2023-08-01T09:14:13;0.85;;;0.30;;
10596;SDS011;5346;48.766;8.674;2023-08-01T09:16:41;1.42;;;0.17;;
10596;SDS011;5346;48.766;8.674;2023-08-01T09:19:21;0.45;;;0.20;;
10596;SDS011;5346;48.766;8.674;2023-08-01T09:21:58;0.57;;;0.30;;
10596;SDS011;5346;48.766;8.674;2023-08-01T09:24:33;0.15;;;0.15;;
10596;SDS011;5346;48.766;8.674;2023-08-01T09:27:07;0.75;;;0.40;;
10596;SDS011;5346;48.766;8.674;2023-08-01T09:29:35;0.10;;;0.10;;
10596;SDS011;5346;48.766;8.674;2023-08-01T09:32:13;0.08;;;0.08;;
10596;SDS011;5346;48.766;8.674;2023-08-01T09:34:41;0.20;;;0.17;;
10596;SDS011;5346;48.766;8.674;2023-08-01T09:37:18;2.83;;;0.30;;
10596;SDS011;5346;48.766;8.674;2023-08-01T09:39:53;0.30;;;0.30;;
10596;SDS011;5346;48.766;8.674;2023-08-01T09:42:22;0.98;;;0.40;;
10596;SDS011;5346;48.766;8.674;2023-08-01T09:44:56;0.15;;;0.15;;
10596;SDS011;5346;48.766;8.674;2023-08-01T09:47:23;0.30;;;0.30;;
10596;SDS011;5346;48.766;8.674;2023-08-01T09:50:09;0.17;;;0.17;;
10596;SDS011;5346;48.766;8.674;2023-08-01T09:52:38;0.28;;;0.25;;
10596;SDS011;5346;48.766;8.674;2023-08-01T09:55:13;1.40;;;0.40;;
10596;SDS011;5346;48.766;8.674;2023-08-01T09:57:47;0.80;;;0.35;;
10596;SDS011;5346;48.766;8.674;2023-08-01T10:00:23;1.40;;;0.82;;
10596;SDS011;5346;48.766;8.674;2023-08-01T10:02:55;0.65;;;0.60;;
10596;SDS011;5346;48.766;8.674;2023-08-01T10:05:34;0.93;;;0.82;;
10596;SDS011;5346;48.766;8.674;2023-08-01T10:08:04;0.98;;;0.60;;
10596;SDS011;5346;48.766;8.674;2023-08-01T10:10:39;1.10;;;0.90;;
10596;SDS011;5346;48.766;8.674;2023-08-01T10:13:07;1.00;;;0.77;;
10596;SDS011;5346;48.766;8.674;2023-08-01T10:15:36;1.50;;;0.95;;
10596;SDS011;5346;48.766;8.674;2023-08-01T10:18:11;0.65;;;0.65;;
10596;SDS011;5346;48.766;8.674;2023-08-01T10:20:46;0.80;;;0.80;;
10596;SDS011;5346;48.766;8.674;2023-08-01T10:23:22;0.73;;;0.73;;
10596;SDS011;5346;48.766;8.674;2023-08-01T10:25:57;1.17;;;0.90;;
10596;SDS011;5346;48.766;8.674;2023-08-01T10:28:33;1.10;;;1.00;;
10596;SDS011;5346;48.766;8.674;2023-08-01T10:31:13;0.80;;;0.80;;
10596;SDS011;5346;48.766;8.674;2023-08-01T10:33:43;1.45;;;1.10;;
10596;SDS011;5346;48.766;8.674;2023-08-01T10:36:20;1.23;;;1.13;;
10596;SDS011;5346;48.766;8.674;2023-08-01T10:38:56;1.30;;;1.20;;
10596;SDS011;5346;48.766;8.674;2023-08-01T10:41:33;2.72;;;1.08;;
10596;SDS011;5346;48.766;8.674;2023-08-01T10:44:09;1.52;;;1.10;;
10596;SDS011;5346;48.766;8.674;2023-08-01T10:46:48;1.88;;;1.17;;
10596;SDS011;5346;48.766;8.674;2023-08-01T10:49:32;1.38;;;1.27;;
10596;SDS011;5346;48.766;8.674;2023-08-01T10:52:21;3.40;;;1.73;;
10596;SDS011;5346;48.766;8.674;2023-08-01T10:54:57;1.30;;;1.05;;
10596;SDS011;5346;48.766;8.674;2023-08-01T10:57:37;4.65;;;1.20;;
10596;SDS011;5346;48.766;8.674;2023-08-01T11:00:06;2.90;;;1.63;;
10596;SDS011;5346;48.766;8.674;2023-08-01T11:02:48;1.85;;;1.30;;
10596;SDS011;5346;48.766;8.674;2023-08-01T11:05:24;1.63;;;1.23;;
10596;SDS011;5346;48.766;8.674;2023-08-01T11:08:04;2.47;;;1.23;;
10596;SDS011;5346;48.766;8.674;2023-08-01T11:10:32;1.42;;;1.20;;
10596;SDS011;5346;48.766;8.674;2023-08-01T11:13:11;2.47;;;1.50;;
10596;SDS011;5346;48.766;8.674;2023-08-01T11:15:38;2.28;;;1.48;;
10596;SDS011;5346;48.766;8.674;2023-08-01T11:18:13;1.63;;;1.20;;
10596;SDS011;5346;48.766;8.674;2023-08-01T11:20:47;1.17;;;1.08;;
10596;SDS011;5346;48.766;8.674;2023-08-01T11:23:28;2.45;;;1.30;;
10596;SDS011;5346;48.766;8.674;2023-08-01T11:26:06;2.30;;;1.30;;
10596;SDS011;5346;48.766;8.674;2023-08-01T11:28:44;1.83;;;1.20;;
10596;SDS011;5346;48.766;8.674;2023-08-01T11:31:13;2.45;;;1.33;;
10596;SDS011;5346;48.766;8.674;2023-08-01T11:33:55;1.98;;;1.48;;
10596;SDS011;5346;48.766;8.674;2023-08-01T11:36:32;1.90;;;1.30;;
10596;SDS011;5346;48.766;8.674;2023-08-01T11:39:14;2.03;;;1.38;;
10596;SDS011;5346;48.766;8.674;2023-08-01T11:41:49;2.72;;;1.30;;
10596;SDS011;5346;48.766;8.674;2023-08-01T11:44:17;2.35;;;1.20;;
10596;SDS011;5346;48.766;8.674;2023-08-01T11:46:56;1.25;;;1.15;;
10596;SDS011;5346;48.766;8.674;2023-08-01T11:49:24;1.77;;;1.20;;
10596;SDS011;5346;48.766;8.674;2023-08-01T11:51:52;2.30;;;1.25;;
10596;SDS011;5346;48.766;8.674;2023-08-01T11:54:27;3.75;;;1.55;;
10596;SDS011;5346;48.766;8.674;2023-08-01T11:57:00;1.80;;;1.30;;
10596;SDS011;5346;48.766;8.674;2023-08-01T11:59:45;1.20;;;1.10;;
10596;SDS011;5346;48.766;8.674;2023-08-01T12:02:21;5.05;;;1.70;;
10596;SDS011;5346;48.766;8.674;2023-08-01T12:04:59;3.03;;;1.45;;
10596;SDS011;5346;48.766;8.674;2023-08-01T12:07:34;3.00;;;1.70;;
10596;SDS011;5346;48.766;8.674;2023-08-01T12:10:02;2.25;;;1.38;;
10596;SDS011;5346;48.766;8.674;2023-08-01T12:12:42;2.38;;;1.50;;
10596;SDS011;5346;48.766;8.674;2023-08-01T12:15:13;1.83;;;1.38;;
10596;SDS011;5346;48.766;8.674;2023-08-01T12:17:50;2.30;;;1.45;;
10596;SDS011;5346;48.766;8.674;2023-08-01T12:20:18;1.92;;;1.40;;
10596;SDS011;5346;48.766;8.674;2023-08-01T12:22:52;3.47;;;1.58;;
10596;SDS011;5346;48.766;8.674;2023-08-01T12:25:26;2.03;;;1.20;;
10596;SDS011;5346;48.766;8.674;2023-08-01T12:27:55;2.10;;;1.60;;
10596;SDS011;5346;48.766;8.674;2023-08-01T12:30:29;1.35;;;1.25;;
10596;SDS011;5346;48.766;8.674;2023-08-01T12:32:56;2.67;;;1.35;;
10596;SDS011;5346;48.766;8.674;2023-08-01T12:35:38;2.30;;;1.25;;
10596;SDS011;5346;48.766;8.674;2023-08-01T12:38:14;2.28;;;1.33;;
10596;SDS011;5346;48.766;8.674;2023-08-01T12:40:42;2.25;;;1.40;;
10596;SDS011;5346;48.766;8.674;2023-08-01T12:43:16;5.63;;;1.50;;
10596;SDS011;5346;48.766;8.674;2023-08-01T12:45:44;1.67;;;1.50;;
10596;SDS011;5346;48.766;8.674;2023-08-01T12:48:21;3.47;;;1.50;;
10596;SDS011;5346;48.766;8.674;2023-08-01T12:50:48;2.53;;;1.20;;
10596;SDS011;5346;48.766;8.674;2023-08-01T12:53:23;2.47;;;1.48;;
10596;SDS011;5346;48.766;8.674;2023-08-01T12:55:57;2.35;;;1.60;;
10596;SDS011;5346;48.766;8.674;2023-08-01T12:58:31;1.50;;;1.40;;
10596;SDS011;5346;48.766;8.674;2023-08-01T13:01:07;2.47;;;1.30;;
10596;SDS011;5346;48.766;8.674;2023-08-01T13:03:42;2.05;;;1.35;;
10596;SDS011;5346;48.766;8.674;2023-08-01T13:06:17;2.85;;;1.70;;
10596;SDS011;5346;48.766;8.674;2023-08-01T13:08:45;1.63;;;1.38;;
10596;SDS011;5346;48.766;8.674;2023-08-01T13:11:20;3.38;;;1.38;;
10596;SDS011;5346;48.766;8.674;2023-08-01T13:13:48;2.55;;;1.35;;
10596;SDS011;5346;48.766;8.674;2023-08-01T13:16:16;2.22;;;1.67;;
10596;SDS011;5346;48.766;8.674;2023-08-01T13:18:51;3.40;;;1.80;;
10596;SDS011;5346;48.766;8.674;2023-08-01T13:21:19;2.65;;;1.70;;
10596;SDS011;5346;48.766;8.674;2023-08-01T13:23:56;2.25;;;1.40;;
10596;SDS011;5346;48.766;8.674;2023-08-01T13:26:33;1.75;;;1.30;;
10596;SDS011;5346;48.766;8.674;2023-08-01T13:29:07;2.20;;;1.30;;
10596;SDS011;5346;48.766;8.674;2023-08-01T13:31:35;3.67;;;1.70;;
10596;SDS011;5346;48.766;8.674;2023-08-01T13:34:04;2.13;;;1.38;;
10596;SDS011;5346;48.766;8.674;2023-08-01T13:36:38;1.83;;;1.48;;
10596;SDS011;5346;48.766;8.674;2023-08-01T13:39:19;3.03;;;1.50;;
10596;SDS011;5346;48.766;8.674;2023-08-01T13:41:47;2.10;;;1.40;;
10596;SDS011;5346;48.766;8.674;2023-08-01T13:44:21;1.85;;;1.42;;
10596;SDS011;5346;48.766;8.674;2023-08-01T13:46:49;1.98;;;1.27;;
10596;SDS011;5346;48.766;8.674;2023-08-01T13:49:23;1.85;;;1.40;;
10596;SDS011;5346;48.766;8.674;2023-08-01T13:51:58;3.95;;;1.88;;
10596;SDS011;5346;48.766;8.674;2023-08-01T13:54:27;1.55;;;1.45;;
10596;SDS011;5346;48.766;8.674;2023-08-01T13:57:02;1.55;;;1.02;;
10596;SDS011;5346;48.766;8.674;2023-08-01T13:59:30;1.45;;;1.35;;
10596;SDS011;5346;48.766;8.674;2023-08-01T14:02:04;1.80;;;1.30;;
10596;SDS011;5346;48.766;8.674;2023-08-01T14:04:36;1.38;;;1.27;;
10596;SDS011;5346;48.766;8.674;2023-08-01T14:07:10;2.08;;;1.45;;
10596;SDS011;5346;48.766;8.674;2023-08-01T14:09:38;1.48;;;1.30;;
10596;SDS011;5346;48.766;8.674;2023-08-01T14:12:05;1.55;;;1.15;;
10596;SDS011;5346;48.766;8.674;2023-08-01T14:14:40;2.03;;;1.30;;
10596;SDS011;5346;48.766;8.674;2023-08-01T14:17:15;2.63;;;1.42;;
10596;SDS011;5346;48.766;8.674;2023-08-01T14:19:43;4.38;;;1.70;;
10596;SDS011;5346;48.766;8.674;2023-08-01T14:22:17;3.78;;;1.63;;
10596;SDS011;5346;48.766;8.674;2023-08-01T14:24:45;2.50;;;1.20;;
10596;SDS011;5346;48.766;8.674;2023-08-01T14:27:19;5.57;;;1.42;;
10596;SDS011;5346;48.766;8.674;2023-08-01T14:29:53;3.30;;;1.50;;
10596;SDS011;5346;48.766;8.674;2023-08-01T14:32:21;2.20;;;1.40;;
10596;SDS011;5346;48.766;8.674;2023-08-01T14:34:48;2.30;;;1.40;;
10596;SDS011;5346;48.766;8.674;2023-08-01T14:37:23;2.33;;;1.58;;
10596;SDS011;5346;48.766;8.674;2023-08-01T14:39:52;2.15;;;1.50;;
10596;SDS011;5346;48.766;8.674;2023-08-01T14:42:26;2.42;;;1.35;;
10596;SDS011;5346;48.766;8.674;2023-08-01T14:44:54;2.90;;;1.67;;
10596;SDS011;5346;48.766;8.674;2023-08-01T14:47:30;3.83;;;1.52;;
10596;SDS011;5346;48.766;8.674;2023-08-01T14:49:58;1.35;;;1.25;;
10596;SDS011;5346;48.766;8.674;2023-08-01T14:52:36;2.33;;;1.58;;
10596;SDS011;5346;48.766;8.674;2023-08-01T14:55:12;2.03;;;1.45;;
10596;SDS011;5346;48.766;8.674;2023-08-01T14:57:40;1.58;;;1.30;;
10596;SDS011;5346;48.766;8.674;2023-08-01T15:00:21;2.55;;;1.38;;
10596;SDS011;5346;48.766;8.674;2023-08-01T15:02:49;1.98;;;1.38;;
10596;SDS011;5346;48.766;8.674;2023-08-01T15:05:24;1.55;;;1.27;;
10596;SDS011;5346;48.766;8.674;2023-08-01T15:07:52;2.35;;;1.40;;
10596;SDS011;5346;48.766;8.674;2023-08-01T15:10:27;3.30;;;1.50;;
10596;SDS011;5346;48.766;8.674;2023-08-01T15:12:55;2.72;;;1.50;;
10596;SDS011;5346;48.766;8.674;2023-08-01T15:15:34;2.10;;;1.50;;
10596;SDS011;5346;48.766;8.674;2023-08-01T15:18:04;2.10;;;1.40;;
10596;SDS011;5346;48.766;8.674;2023-08-01T15:20:38;1.80;;;1.50;;
10596;SDS011;5346;48.766;8.674;2023-08-01T15:23:07;2.08;;;1.58;;
10596;SDS011;5346;48.766;8.674;2023-08-01T15:25:50;1.63;;;1.52;;
10596;SDS011;5346;48.766;8.674;2023-08-01T15:28:22;3.38;;;1.40;;
10596;SDS011;5346;48.766;8.674;2023-08-01T15:33:38;1.48;;;1.38;;
10596;SDS011;5346;48.766;8.674;2023-08-01T15:36:14;2.25;;;1.38;;
10596;SDS011;5346;48.766;8.674;2023-08-01T15:38:57;2.10;;;1.45;;